sensor_id;sensor_type;location;lat;lon;timestamp;P1;durP1;ratioP1;P2;durP2;ratioP2
44169;SDS011;29836;52.286;9.576;2023-02-18T00:01:01;4.70;;;1.40;;
44169;SDS011;29836;52.286;9.576;2023-02-18T00:03:28;9.15;;;1.90;;
44169;SDS011;29836;52.286;9.576;2023-02-18T00:05:54;7.47;;;1.13;;
44169;SDS011;29836;52.286;9.576;2023-02-18T00:08:20;3.80;;;1.15;;
44169;SDS011;29836;52.286;9.576;2023-02-18T00:10:46;2.10;;;0.68;;
44169;SDS011;29836;52.286;9.576;2023-02-18T00:13:12;1.50;;;0.75;;
44169;SDS011;29836;52.286;9.576;2023-02-18T00:15:38;2.60;;;0.98;;
44169;SDS011;29836;52.286;9.576;2023-02-18T00:18:04;1.85;;;0.90;;
44169;SDS011;29836;52.286;9.576;2023-02-18T00:20:30;6.65;;;1.10;;
44169;SDS011;29836;52.286;9.576;2023-02-18T00:22:57;7.70;;;1.00;;
44169;SDS011;29836;52.286;9.576;2023-02-18T00:25:23;5.63;;;1.30;;
44169;SDS011;29836;52.286;9.576;2023-02-18T00:27:49;1.95;;;0.63;;
44169;SDS011;29836;52.286;9.576;2023-02-18T00:30:15;5.22;;;1.23;;
44169;SDS011;29836;52.286;9.576;2023-02-18T00:32:40;3.75;;;0.80;;
44169;SDS011;29836;52.286;9.576;2023-02-18T00:35:06;3.05;;;1.02;;
44169;SDS011;29836;52.286;9.576;2023-02-18T00:37:32;2.47;;;0.80;;
44169;SDS011;29836;52.286;9.576;2023-02-18T00:39:57;2.10;;;0.85;;
44169;SDS011;29836;52.286;9.576;2023-02-18T00:42:23;5.85;;;1.00;;
44169;SDS011;29836;52.286;9.576;2023-02-18T00:44:48;4.57;;;1.35;;
44169;SDS011;29836;52.286;9.576;2023-02-18T00:47:14;3.45;;;0.75;;
44169;SDS011;29836;52.286;9.576;2023-02-18T00:49:39;2.17;;;0.95;;
44169;SDS011;29836;52.286;9.576;2023-02-18T00:52:05;5.40;;;0.93;;
44169;SDS011;29836;52.286;9.576;2023-02-18T00:54:30;1.90;;;0.90;;
44169;SDS011;29836;52.286;9.576;2023-02-18T00:56:55;5.40;;;1.15;;
44169;SDS011;29836;52.286;9.576;2023-02-18T00:59:21;2.00;;;1.15;;
44169;SDS011;29836;52.286;9.576;2023-02-18T01:01:46;2.28;;;0.90;;
44169;SDS011;29836;52.286;9.576;2023-02-18T01:04:12;5.20;;;1.10;;
44169;SDS011;29836;52.286;9.576;2023-02-18T01:06:37;3.47;;;1.33;;
44169;SDS011;29836;52.286;9.576;2023-02-18T01:09:03;3.67;;;1.13;;
44169;SDS011;29836;52.286;9.576;2023-02-18T01:11:30;2.83;;;0.95;;
44169;SDS011;29836;52.286;9.576;2023-02-18T01:13:55;1.75;;;0.82;;
44169;SDS011;29836;52.286;9.576;2023-02-18T01:16:21;4.18;;;0.95;;
44169;SDS011;29836;52.286;9.576;2023-02-18T01:18:47;6.30;;;1.35;;
44169;SDS011;29836;52.286;9.576;2023-02-18T01:21:12;4.22;;;1.23;;
44169;SDS011;29836;52.286;9.576;2023-02-18T01:23:39;2.70;;;1.30;;
44169;SDS011;29836;52.286;9.576;2023-02-18T01:26:07;4.13;;;0.80;;
44169;SDS011;29836;52.286;9.576;2023-02-18T01:28:33;1.75;;;1.25;;
44169;SDS011;29836;52.286;9.576;2023-02-18T01:31:03;1.88;;;0.93;;
44169;SDS011;29836;52.286;9.576;2023-02-18T01:33:31;2.47;;;0.70;;
44169;SDS011;29836;52.286;9.576;2023-02-18T01:35:57;2.13;;;1.10;;
44169;SDS011;29836;52.286;9.576;2023-02-18T01:38:22;7.22;;;1.10;;
44169;SDS011;29836;52.286;9.576;2023-02-18T01:40:49;2.55;;;0.88;;
44169;SDS011;29836;52.286;9.576;2023-02-18T01:43:16;6.07;;;1.00;;
44169;SDS011;29836;52.286;9.576;2023-02-18T01:45:59;6.97;;;1.30;;
44169;SDS011;29836;52.286;9.576;2023-02-18T01:48:37;2.90;;;0.68;;
44169;SDS011;29836;52.286;9.576;2023-02-18T01:51:08;4.35;;;1.25;;
44169;SDS011;29836;52.286;9.576;2023-02-18T01:53:51;3.22;;;0.80;;
44169;SDS011;29836;52.286;9.576;2023-02-18T01:56:28;14.25;;;2.00;;
44169;SDS011;29836;52.286;9.576;2023-02-18T01:58:59;6.47;;;1.15;;
44169;SDS011;29836;52.286;9.576;2023-02-18T02:01:27;3.10;;;1.33;;
44169;SDS011;29836;52.286;9.576;2023-02-18T02:03:53;9.85;;;1.42;;
44169;SDS011;29836;52.286;9.576;2023-02-18T02:06:20;14.95;;;1.70;;
44169;SDS011;29836;52.286;9.576;2023-02-18T02:08:48;4.60;;;1.05;;
44169;SDS011;29836;52.286;9.576;2023-02-18T02:16:29;2.08;;;1.15;;
44169;SDS011;29836;52.286;9.576;2023-02-18T02:19:17;1.95;;;1.15;;
44169;SDS011;29836;52.286;9.576;2023-02-18T02:21:57;4.88;;;0.88;;
44169;SDS011;29836;52.286;9.576;2023-02-18T02:24:54;11.40;;;1.55;;
44169;SDS011;29836;52.286;9.576;2023-02-18T02:27:32;3.50;;;1.30;;
44169;SDS011;29836;52.286;9.576;2023-02-18T02:30:29;6.90;;;1.47;;
44169;SDS011;29836;52.286;9.576;2023-02-18T02:36:12;7.55;;;1.55;;
44169;SDS011;29836;52.286;9.576;2023-02-18T02:38:48;13.23;;;1.98;;
44169;SDS011;29836;52.286;9.576;2023-02-18T02:44:21;5.30;;;1.42;;
44169;SDS011;29836;52.286;9.576;2023-02-18T02:47:11;6.15;;;2.28;;
44169;SDS011;29836;52.286;9.576;2023-02-18T02:49:48;11.88;;;1.80;;
44169;SDS011;29836;52.286;9.576;2023-02-18T02:52:27;9.40;;;2.55;;
44169;SDS011;29836;52.286;9.576;2023-02-18T02:55:02;8.75;;;2.15;;
44169;SDS011;29836;52.286;9.576;2023-02-18T03:00:01;6.38;;;2.78;;
44169;SDS011;29836;52.286;9.576;2023-02-18T03:02:36;11.55;;;3.60;;
44169;SDS011;29836;52.286;9.576;2023-02-18T03:05:19;11.68;;;4.35;;
44169;SDS011;29836;52.286;9.576;2023-02-18T03:11:12;12.80;;;4.45;;
44169;SDS011;29836;52.286;9.576;2023-02-18T03:13:44;17.65;;;5.78;;
44169;SDS011;29836;52.286;9.576;2023-02-18T03:19:26;10.35;;;4.80;;
44169;SDS011;29836;52.286;9.576;2023-02-18T03:21:59;19.70;;;6.55;;
44169;SDS011;29836;52.286;9.576;2023-02-18T03:24:29;20.02;;;6.63;;
44169;SDS011;29836;52.286;9.576;2023-02-18T03:26:59;13.50;;;6.22;;
44169;SDS011;29836;52.286;9.576;2023-02-18T03:29:51;17.17;;;6.43;;
44169;SDS011;29836;52.286;9.576;2023-02-18T03:32:21;16.48;;;7.55;;
44169;SDS011;29836;52.286;9.576;2023-02-18T03:34:50;27.05;;;7.15;;
44169;SDS011;29836;52.286;9.576;2023-02-18T03:37:19;22.17;;;7.93;;
44169;SDS011;29836;52.286;9.576;2023-02-18T03:39:46;18.13;;;7.75;;
44169;SDS011;29836;52.286;9.576;2023-02-18T03:42:15;19.40;;;7.78;;
44169;SDS011;29836;52.286;9.576;2023-02-18T03:44:42;15.25;;;7.78;;
44169;SDS011;29836;52.286;9.576;2023-02-18T03:47:08;26.13;;;8.63;;
44169;SDS011;29836;52.286;9.576;2023-02-18T03:49:33;20.73;;;8.02;;
44169;SDS011;29836;52.286;9.576;2023-02-18T03:51:59;17.25;;;8.00;;
44169;SDS011;29836;52.286;9.576;2023-02-18T03:54:24;18.95;;;8.07;;
44169;SDS011;29836;52.286;9.576;2023-02-18T03:56:50;19.55;;;9.02;;
44169;SDS011;29836;52.286;9.576;2023-02-18T03:59:15;28.65;;;9.18;;
44169;SDS011;29836;52.286;9.576;2023-02-18T04:01:41;17.10;;;7.78;;
44169;SDS011;29836;52.286;9.576;2023-02-18T04:04:07;18.55;;;9.20;;
44169;SDS011;29836;52.286;9.576;2023-02-18T04:06:32;22.40;;;9.18;;
44169;SDS011;29836;52.286;9.576;2023-02-18T04:08:58;22.73;;;9.32;;
44169;SDS011;29836;52.286;9.576;2023-02-18T04:11:24;23.70;;;9.57;;
44169;SDS011;29836;52.286;9.576;2023-02-18T04:13:49;20.50;;;9.43;;
44169;SDS011;29836;52.286;9.576;2023-02-18T04:16:15;23.27;;;9.90;;
44169;SDS011;29836;52.286;9.576;2023-02-18T04:18:40;19.88;;;9.57;;
44169;SDS011;29836;52.286;9.576;2023-02-18T04:21:06;20.83;;;10.32;;
44169;SDS011;29836;52.286;9.576;2023-02-18T04:23:31;20.88;;;9.57;;
44169;SDS011;29836;52.286;9.576;2023-02-18T04:25:56;21.92;;;10.55;;
44169;SDS011;29836;52.286;9.576;2023-02-18T04:28:22;21.42;;;9.45;;
44169;SDS011;29836;52.286;9.576;2023-02-18T04:30:48;28.40;;;11.95;;
44169;SDS011;29836;52.286;9.576;2023-02-18T04:33:13;29.25;;;11.25;;
44169;SDS011;29836;52.286;9.576;2023-02-18T04:35:40;23.88;;;11.35;;
44169;SDS011;29836;52.286;9.576;2023-02-18T04:38:06;23.60;;;10.60;;
44169;SDS011;29836;52.286;9.576;2023-02-18T04:40:32;27.58;;;11.63;;
44169;SDS011;29836;52.286;9.576;2023-02-18T04:42:58;25.33;;;10.75;;
44169;SDS011;29836;52.286;9.576;2023-02-18T04:45:25;28.65;;;12.80;;
44169;SDS011;29836;52.286;9.576;2023-02-18T04:47:51;25.85;;;12.43;;
44169;SDS011;29836;52.286;9.576;2023-02-18T04:50:17;25.90;;;12.45;;
44169;SDS011;29836;52.286;9.576;2023-02-18T04:52:43;27.65;;;11.65;;
44169;SDS011;29836;52.286;9.576;2023-02-18T04:55:08;30.80;;;12.25;;
44169;SDS011;29836;52.286;9.576;2023-02-18T04:57:34;24.60;;;11.20;;
44169;SDS011;29836;52.286;9.576;2023-02-18T04:59:59;20.45;;;9.40;;
44169;SDS011;29836;52.286;9.576;2023-02-18T05:02:25;20.00;;;9.80;;
44169;SDS011;29836;52.286;9.576;2023-02-18T05:04:50;23.10;;;9.43;;
44169;SDS011;29836;52.286;9.576;2023-02-18T05:07:16;26.13;;;11.25;;
44169;SDS011;29836;52.286;9.576;2023-02-18T05:09:41;20.50;;;8.70;;
44169;SDS011;29836;52.286;9.576;2023-02-18T05:12:07;23.02;;;9.90;;
44169;SDS011;29836;52.286;9.576;2023-02-18T05:14:33;29.27;;;11.77;;
44169;SDS011;29836;52.286;9.576;2023-02-18T05:16:58;26.60;;;9.43;;
44169;SDS011;29836;52.286;9.576;2023-02-18T05:19:24;18.80;;;9.18;;
44169;SDS011;29836;52.286;9.576;2023-02-18T05:21:49;25.15;;;9.73;;
44169;SDS011;29836;52.286;9.576;2023-02-18T05:24:15;24.23;;;10.80;;
44169;SDS011;29836;52.286;9.576;2023-02-18T05:26:40;22.35;;;10.65;;
44169;SDS011;29836;52.286;9.576;2023-02-18T05:29:06;18.05;;;9.32;;
44169;SDS011;29836;52.286;9.576;2023-02-18T05:31:31;19.88;;;9.00;;
44169;SDS011;29836;52.286;9.576;2023-02-18T05:33:57;21.65;;;8.60;;
44169;SDS011;29836;52.286;9.576;2023-02-18T05:36:22;15.70;;;7.57;;
44169;SDS011;29836;52.286;9.576;2023-02-18T05:38:48;21.67;;;8.98;;
44169;SDS011;29836;52.286;9.576;2023-02-18T05:41:13;14.82;;;6.75;;
44169;SDS011;29836;52.286;9.576;2023-02-18T05:43:39;13.85;;;6.90;;
44169;SDS011;29836;52.286;9.576;2023-02-18T05:46:23;16.63;;;6.20;;
44169;SDS011;29836;52.286;9.576;2023-02-18T05:48:48;9.88;;;4.45;;
44169;SDS011;29836;52.286;9.576;2023-02-18T05:51:14;12.10;;;6.07;;
44169;SDS011;29836;52.286;9.576;2023-02-18T05:53:40;10.88;;;5.07;;
44169;SDS011;29836;52.286;9.576;2023-02-18T05:56:05;11.40;;;4.78;;
44169;SDS011;29836;52.286;9.576;2023-02-18T05:58:31;12.68;;;5.38;;
44169;SDS011;29836;52.286;9.576;2023-02-18T06:00:57;12.95;;;5.28;;
44169;SDS011;29836;52.286;9.576;2023-02-18T06:03:22;16.25;;;6.35;;
44169;SDS011;29836;52.286;9.576;2023-02-18T06:05:48;16.65;;;5.80;;
44169;SDS011;29836;52.286;9.576;2023-02-18T06:08:15;13.23;;;6.20;;
44169;SDS011;29836;52.286;9.576;2023-02-18T06:10:40;10.40;;;5.40;;
44169;SDS011;29836;52.286;9.576;2023-02-18T06:13:05;14.35;;;5.80;;
44169;SDS011;29836;52.286;9.576;2023-02-18T06:15:31;10.13;;;5.13;;
44169;SDS011;29836;52.286;9.576;2023-02-18T06:17:56;14.63;;;5.85;;
44169;SDS011;29836;52.286;9.576;2023-02-18T06:20:22;15.57;;;5.40;;
44169;SDS011;29836;52.286;9.576;2023-02-18T06:22:47;11.57;;;5.20;;
44169;SDS011;29836;52.286;9.576;2023-02-18T06:25:13;11.15;;;5.00;;
44169;SDS011;29836;52.286;9.576;2023-02-18T06:27:38;11.18;;;5.43;;
44169;SDS011;29836;52.286;9.576;2023-02-18T06:30:04;12.27;;;4.93;;
44169;SDS011;29836;52.286;9.576;2023-02-18T06:32:30;11.27;;;4.90;;
44169;SDS011;29836;52.286;9.576;2023-02-18T06:34:55;9.57;;;5.05;;
44169;SDS011;29836;52.286;9.576;2023-02-18T06:37:21;11.32;;;5.40;;
44169;SDS011;29836;52.286;9.576;2023-02-18T06:39:46;9.02;;;4.55;;
44169;SDS011;29836;52.286;9.576;2023-02-18T06:42:12;12.27;;;4.85;;
44169;SDS011;29836;52.286;9.576;2023-02-18T06:44:37;11.00;;;5.57;;
44169;SDS011;29836;52.286;9.576;2023-02-18T06:47:03;12.40;;;5.70;;
44169;SDS011;29836;52.286;9.576;2023-02-18T06:49:28;12.85;;;5.10;;
44169;SDS011;29836;52.286;9.576;2023-02-18T06:51:54;12.05;;;5.22;;
44169;SDS011;29836;52.286;9.576;2023-02-18T06:54:19;10.70;;;4.95;;
44169;SDS011;29836;52.286;9.576;2023-02-18T06:56:45;10.30;;;4.13;;
44169;SDS011;29836;52.286;9.576;2023-02-18T06:59:11;8.35;;;3.97;;
44169;SDS011;29836;52.286;9.576;2023-02-18T07:01:36;8.95;;;4.22;;
44169;SDS011;29836;52.286;9.576;2023-02-18T07:04:02;9.02;;;4.13;;
44169;SDS011;29836;52.286;9.576;2023-02-18T07:06:27;9.95;;;4.60;;
44169;SDS011;29836;52.286;9.576;2023-02-18T07:08:53;10.52;;;4.22;;
44169;SDS011;29836;52.286;9.576;2023-02-18T07:11:18;11.10;;;4.55;;
44169;SDS011;29836;52.286;9.576;2023-02-18T07:13:44;9.52;;;4.38;;
44169;SDS011;29836;52.286;9.576;2023-02-18T07:16:09;11.57;;;4.43;;
44169;SDS011;29836;52.286;9.576;2023-02-18T07:18:35;14.18;;;5.32;;
44169;SDS011;29836;52.286;9.576;2023-02-18T07:21:00;9.82;;;4.38;;
44169;SDS011;29836;52.286;9.576;2023-02-18T07:23:26;9.55;;;4.63;;
44169;SDS011;29836;52.286;9.576;2023-02-18T07:25:51;8.88;;;3.90;;
44169;SDS011;29836;52.286;9.576;2023-02-18T07:28:17;8.15;;;3.80;;
44169;SDS011;29836;52.286;9.576;2023-02-18T07:30:43;9.70;;;4.38;;
44169;SDS011;29836;52.286;9.576;2023-02-18T07:33:08;11.32;;;3.90;;
44169;SDS011;29836;52.286;9.576;2023-02-18T07:35:34;8.60;;;4.20;;
44169;SDS011;29836;52.286;9.576;2023-02-18T07:37:59;10.18;;;4.97;;
44169;SDS011;29836;52.286;9.576;2023-02-18T07:40:27;8.25;;;3.90;;
44169;SDS011;29836;52.286;9.576;2023-02-18T07:42:52;8.13;;;3.70;;
44169;SDS011;29836;52.286;9.576;2023-02-18T07:45:18;7.55;;;3.28;;
44169;SDS011;29836;52.286;9.576;2023-02-18T07:47:43;11.65;;;4.13;;
44169;SDS011;29836;52.286;9.576;2023-02-18T07:50:09;8.48;;;3.58;;
44169;SDS011;29836;52.286;9.576;2023-02-18T07:52:35;7.85;;;3.60;;
44169;SDS011;29836;52.286;9.576;2023-02-18T07:55:01;5.72;;;2.97;;
44169;SDS011;29836;52.286;9.576;2023-02-18T07:57:26;7.25;;;2.90;;
44169;SDS011;29836;52.286;9.576;2023-02-18T07:59:52;4.38;;;1.92;;
44169;SDS011;29836;52.286;9.576;2023-02-18T08:02:18;3.70;;;1.77;;
44169;SDS011;29836;52.286;9.576;2023-02-18T08:04:46;4.65;;;1.80;;
44169;SDS011;29836;52.286;9.576;2023-02-18T08:07:15;4.40;;;1.73;;
44169;SDS011;29836;52.286;9.576;2023-02-18T08:09:41;4.20;;;1.80;;
44169;SDS011;29836;52.286;9.576;2023-02-18T08:12:07;3.20;;;1.33;;
44169;SDS011;29836;52.286;9.576;2023-02-18T08:14:33;2.95;;;1.35;;
44169;SDS011;29836;52.286;9.576;2023-02-18T08:16:58;2.65;;;1.35;;
44169;SDS011;29836;52.286;9.576;2023-02-18T08:19:24;2.25;;;1.35;;
44169;SDS011;29836;52.286;9.576;2023-02-18T08:21:49;3.08;;;1.02;;
44169;SDS011;29836;52.286;9.576;2023-02-18T08:24:15;1.90;;;1.10;;
44169;SDS011;29836;52.286;9.576;2023-02-18T08:26:40;2.38;;;1.17;;
44169;SDS011;29836;52.286;9.576;2023-02-18T08:29:06;2.53;;;1.05;;
44169;SDS011;29836;52.286;9.576;2023-02-18T08:31:31;1.63;;;1.02;;
44169;SDS011;29836;52.286;9.576;2023-02-18T08:33:58;1.90;;;1.30;;
44169;SDS011;29836;52.286;9.576;2023-02-18T08:36:24;2.65;;;1.30;;
44169;SDS011;29836;52.286;9.576;2023-02-18T08:38:51;2.88;;;1.40;;
44169;SDS011;29836;52.286;9.576;2023-02-18T08:41:17;2.72;;;1.20;;
44169;SDS011;29836;52.286;9.576;2023-02-18T08:43:43;1.98;;;1.13;;
44169;SDS011;29836;52.286;9.576;2023-02-18T08:46:09;2.97;;;1.30;;
44169;SDS011;29836;52.286;9.576;2023-02-18T08:48:35;3.20;;;1.20;;
44169;SDS011;29836;52.286;9.576;2023-02-18T08:51:09;2.92;;;1.23;;
44169;SDS011;29836;52.286;9.576;2023-02-18T08:53:35;1.92;;;1.13;;
44169;SDS011;29836;52.286;9.576;2023-02-18T08:56:04;2.33;;;1.20;;
44169;SDS011;29836;52.286;9.576;2023-02-18T08:58:30;2.05;;;1.08;;
44169;SDS011;29836;52.286;9.576;2023-02-18T09:00:56;2.08;;;1.30;;
44169;SDS011;29836;52.286;9.576;2023-02-18T09:03:25;1.90;;;1.00;;
44169;SDS011;29836;52.286;9.576;2023-02-18T09:05:51;1.58;;;0.88;;
44169;SDS011;29836;52.286;9.576;2023-02-18T09:08:16;1.70;;;1.20;;
44169;SDS011;29836;52.286;9.576;2023-02-18T09:10:43;1.52;;;0.90;;
44169;SDS011;29836;52.286;9.576;2023-02-18T09:13:08;1.52;;;0.90;;
44169;SDS011;29836;52.286;9.576;2023-02-18T09:15:34;1.85;;;1.00;;
44169;SDS011;29836;52.286;9.576;2023-02-18T09:17:59;1.30;;;0.90;;
44169;SDS011;29836;52.286;9.576;2023-02-18T09:20:25;1.15;;;0.73;;
44169;SDS011;29836;52.286;9.576;2023-02-18T09:22:51;1.80;;;0.98;;
44169;SDS011;29836;52.286;9.576;2023-02-18T09:25:16;1.45;;;0.88;;
44169;SDS011;29836;52.286;9.576;2023-02-18T09:27:42;1.70;;;0.90;;
44169;SDS011;29836;52.286;9.576;2023-02-18T09:30:08;1.50;;;0.70;;
44169;SDS011;29836;52.286;9.576;2023-02-18T09:32:34;1.23;;;0.70;;
44169;SDS011;29836;52.286;9.576;2023-02-18T09:34:59;0.90;;;0.60;;
44169;SDS011;29836;52.286;9.576;2023-02-18T09:37:26;1.23;;;0.90;;
44169;SDS011;29836;52.286;9.576;2023-02-18T09:39:52;0.70;;;0.70;;
44169;SDS011;29836;52.286;9.576;2023-02-18T09:42:18;0.85;;;0.55;;
44169;SDS011;29836;52.286;9.576;2023-02-18T09:44:50;1.17;;;0.85;;
44169;SDS011;29836;52.286;9.576;2023-02-18T09:47:29;1.02;;;0.70;;
44169;SDS011;29836;52.286;9.576;2023-02-18T09:49:59;1.38;;;0.80;;
44169;SDS011;29836;52.286;9.576;2023-02-18T09:52:31;1.65;;;0.80;;
44169;SDS011;29836;52.286;9.576;2023-02-18T09:54:59;0.90;;;0.65;;
44169;SDS011;29836;52.286;9.576;2023-02-18T09:57:38;1.77;;;0.75;;
44169;SDS011;29836;52.286;9.576;2023-02-18T10:00:51;1.27;;;0.82;;
44169;SDS011;29836;52.286;9.576;2023-02-18T10:03:01;1.48;;;1.00;;
44169;SDS011;29836;52.286;9.576;2023-02-18T10:05:28;2.03;;;1.00;;
44169;SDS011;29836;52.286;9.576;2023-02-18T10:07:57;1.45;;;0.80;;
44169;SDS011;29836;52.286;9.576;2023-02-18T10:10:41;1.33;;;0.80;;
44169;SDS011;29836;52.286;9.576;2023-02-18T10:13:12;2.15;;;1.10;;
44169;SDS011;29836;52.286;9.576;2023-02-18T10:15:43;1.63;;;0.95;;
44169;SDS011;29836;52.286;9.576;2023-02-18T10:20:54;3.58;;;0.90;;
44169;SDS011;29836;52.286;9.576;2023-02-18T10:23:33;3.22;;;0.90;;
44169;SDS011;29836;52.286;9.576;2023-02-18T10:26:03;2.70;;;1.00;;
44169;SDS011;29836;52.286;9.576;2023-02-18T10:28:31;1.30;;;0.93;;
44169;SDS011;29836;52.286;9.576;2023-02-18T10:31:01;1.70;;;1.08;;
44169;SDS011;29836;52.286;9.576;2023-02-18T10:33:33;1.80;;;0.93;;
44169;SDS011;29836;52.286;9.576;2023-02-18T10:36:23;1.08;;;0.85;;
44169;SDS011;29836;52.286;9.576;2023-02-18T10:39:13;1.23;;;0.90;;
44169;SDS011;29836;52.286;9.576;2023-02-18T10:44:59;3.60;;;1.08;;
44169;SDS011;29836;52.286;9.576;2023-02-18T10:47:48;1.33;;;0.80;;
44169;SDS011;29836;52.286;9.576;2023-02-18T10:50:37;1.13;;;0.60;;
44169;SDS011;29836;52.286;9.576;2023-02-18T11:04:18;1.00;;;0.77;;
44169;SDS011;29836;52.286;9.576;2023-02-18T11:06:46;1.10;;;0.70;;
44169;SDS011;29836;52.286;9.576;2023-02-18T11:09:22;1.08;;;0.85;;
44169;SDS011;29836;52.286;9.576;2023-02-18T11:12:01;1.67;;;0.88;;
44169;SDS011;29836;52.286;9.576;2023-02-18T11:14:39;1.23;;;0.93;;
44169;SDS011;29836;52.286;9.576;2023-02-18T11:17:18;1.65;;;0.98;;
44169;SDS011;29836;52.286;9.576;2023-02-18T11:20:19;0.95;;;0.68;;
44169;SDS011;29836;52.286;9.576;2023-02-18T11:23:13;1.15;;;0.70;;
44169;SDS011;29836;52.286;9.576;2023-02-18T11:30:43;2.67;;;1.40;;
44169;SDS011;29836;52.286;9.576;2023-02-18T11:33:18;1.58;;;1.00;;
44169;SDS011;29836;52.286;9.576;2023-02-18T11:35:55;3.55;;;1.63;;
44169;SDS011;29836;52.286;9.576;2023-02-18T11:38:23;1.13;;;0.95;;
44169;SDS011;29836;52.286;9.576;2023-02-18T11:41:08;1.73;;;1.00;;
44169;SDS011;29836;52.286;9.576;2023-02-18T11:43:39;1.92;;;1.15;;
44169;SDS011;29836;52.286;9.576;2023-02-18T11:46:11;1.83;;;1.20;;
44169;SDS011;29836;52.286;9.576;2023-02-18T11:48:45;1.70;;;0.80;;
44169;SDS011;29836;52.286;9.576;2023-02-18T11:51:13;2.08;;;1.23;;
44169;SDS011;29836;52.286;9.576;2023-02-18T11:53:52;1.95;;;1.10;;
44169;SDS011;29836;52.286;9.576;2023-02-18T11:56:23;4.13;;;0.98;;
44169;SDS011;29836;52.286;9.576;2023-02-18T11:58:49;1.55;;;0.90;;
44169;SDS011;29836;52.286;9.576;2023-02-18T12:04:18;2.03;;;1.08;;
44169;SDS011;29836;52.286;9.576;2023-02-18T12:09:21;2.05;;;1.05;;
44169;SDS011;29836;52.286;9.576;2023-02-18T12:11:54;1.40;;;1.17;;
44169;SDS011;29836;52.286;9.576;2023-02-18T12:14:22;3.03;;;1.40;;
44169;SDS011;29836;52.286;9.576;2023-02-18T12:30:31;1.10;;;0.80;;
44169;SDS011;29836;52.286;9.576;2023-02-18T12:38:54;1.08;;;0.95;;
44169;SDS011;29836;52.286;9.576;2023-02-18T12:50:09;1.40;;;1.10;;
44169;SDS011;29836;52.286;9.576;2023-02-18T12:53:00;1.27;;;0.90;;
44169;SDS011;29836;52.286;9.576;2023-02-18T12:58:29;2.08;;;0.80;;
44169;SDS011;29836;52.286;9.576;2023-02-18T13:07:08;2.53;;;1.00;;
44169;SDS011;29836;52.286;9.576;2023-02-18T13:09:54;1.15;;;0.90;;
44169;SDS011;29836;52.286;9.576;2023-02-18T13:12:44;1.55;;;0.95;;
44169;SDS011;29836;52.286;9.576;2023-02-18T13:18:09;1.45;;;0.85;;
44169;SDS011;29836;52.286;9.576;2023-02-18T13:20:44;1.83;;;1.20;;
44169;SDS011;29836;52.286;9.576;2023-02-18T13:23:33;2.22;;;1.27;;
44169;SDS011;29836;52.286;9.576;2023-02-18T13:26:03;1.73;;;1.25;;
44169;SDS011;29836;52.286;9.576;2023-02-18T13:31:26;2.25;;;1.35;;
44169;SDS011;29836;52.286;9.576;2023-02-18T13:34:04;1.63;;;1.00;;
44169;SDS011;29836;52.286;9.576;2023-02-18T13:39:55;1.58;;;0.93;;
44169;SDS011;29836;52.286;9.576;2023-02-18T13:42:24;2.47;;;1.08;;
44169;SDS011;29836;52.286;9.576;2023-02-18T13:58:26;2.28;;;1.27;;
44169;SDS011;29836;52.286;9.576;2023-02-18T14:01:00;2.17;;;1.30;;
44169;SDS011;29836;52.286;9.576;2023-02-18T14:04:31;3.53;;;1.42;;
44169;SDS011;29836;52.286;9.576;2023-02-18T14:06:21;2.50;;;1.40;;
44169;SDS011;29836;52.286;9.576;2023-02-18T14:08:48;2.10;;;1.17;;
44169;SDS011;29836;52.286;9.576;2023-02-18T14:13:40;2.17;;;1.40;;
44169;SDS011;29836;52.286;9.576;2023-02-18T14:16:19;2.53;;;1.30;;
44169;SDS011;29836;52.286;9.576;2023-02-18T14:26:06;1.45;;;0.98;;
44169;SDS011;29836;52.286;9.576;2023-02-18T14:28:37;3.53;;;1.40;;
44169;SDS011;29836;52.286;9.576;2023-02-18T14:33:38;10.45;;;1.33;;
44169;SDS011;29836;52.286;9.576;2023-02-18T14:36:09;1.98;;;1.20;;
44169;SDS011;29836;52.286;9.576;2023-02-18T14:39:01;5.57;;;1.40;;
44169;SDS011;29836;52.286;9.576;2023-02-18T14:48:05;1.38;;;0.85;;
44169;SDS011;29836;52.286;9.576;2023-02-18T14:50:44;3.03;;;1.05;;
44169;SDS011;29836;52.286;9.576;2023-02-18T14:53:13;1.55;;;1.10;;
44169;SDS011;29836;52.286;9.576;2023-02-18T14:55:43;2.75;;;1.30;;
44169;SDS011;29836;52.286;9.576;2023-02-18T15:00:58;3.38;;;1.65;;
44169;SDS011;29836;52.286;9.576;2023-02-18T15:03:38;3.65;;;1.73;;
44169;SDS011;29836;52.286;9.576;2023-02-18T15:06:19;3.47;;;1.60;;
44169;SDS011;29836;52.286;9.576;2023-02-18T15:11:40;4.07;;;1.70;;
44169;SDS011;29836;52.286;9.576;2023-02-18T15:14:10;3.85;;;1.55;;
44169;SDS011;29836;52.286;9.576;2023-02-18T15:16:41;3.78;;;2.00;;
44169;SDS011;29836;52.286;9.576;2023-02-18T15:19:13;4.53;;;2.05;;
44169;SDS011;29836;52.286;9.576;2023-02-18T15:21:42;5.40;;;1.98;;
44169;SDS011;29836;52.286;9.576;2023-02-18T15:24:43;4.75;;;1.95;;
44169;SDS011;29836;52.286;9.576;2023-02-18T15:29:47;5.97;;;2.50;;
44169;SDS011;29836;52.286;9.576;2023-02-18T15:32:16;4.03;;;2.42;;
44169;SDS011;29836;52.286;9.576;2023-02-18T15:34:51;4.75;;;2.35;;
44169;SDS011;29836;52.286;9.576;2023-02-18T15:37:22;3.97;;;2.00;;
44169;SDS011;29836;52.286;9.576;2023-02-18T15:39:47;5.15;;;2.58;;
44169;SDS011;29836;52.286;9.576;2023-02-18T15:44:57;5.18;;;2.30;;
44169;SDS011;29836;52.286;9.576;2023-02-18T15:47:43;6.60;;;2.40;;
44169;SDS011;29836;52.286;9.576;2023-02-18T15:50:23;7.20;;;2.65;;
44169;SDS011;29836;52.286;9.576;2023-02-18T15:52:52;5.82;;;2.42;;
44169;SDS011;29836;52.286;9.576;2023-02-18T15:55:32;3.92;;;2.05;;
44169;SDS011;29836;52.286;9.576;2023-02-18T15:58:00;6.68;;;2.55;;
44169;SDS011;29836;52.286;9.576;2023-02-18T16:00:29;10.10;;;2.72;;
44169;SDS011;29836;52.286;9.576;2023-02-18T16:05:37;5.88;;;2.13;;
44169;SDS011;29836;52.286;9.576;2023-02-18T16:08:05;8.00;;;2.42;;
44169;SDS011;29836;52.286;9.576;2023-02-18T16:10:38;4.82;;;2.50;;
44169;SDS011;29836;52.286;9.576;2023-02-18T16:13:11;3.53;;;1.60;;
44169;SDS011;29836;52.286;9.576;2023-02-18T16:15:39;5.05;;;2.28;;
44169;SDS011;29836;52.286;9.576;2023-02-18T16:18:18;3.75;;;1.85;;
44169;SDS011;29836;52.286;9.576;2023-02-18T16:21:00;5.70;;;2.10;;
44169;SDS011;29836;52.286;9.576;2023-02-18T16:23:35;3.83;;;1.90;;
44169;SDS011;29836;52.286;9.576;2023-02-18T16:26:49;5.50;;;1.98;;
44169;SDS011;29836;52.286;9.576;2023-02-18T16:29:09;4.57;;;2.58;;
44169;SDS011;29836;52.286;9.576;2023-02-18T16:31:36;6.25;;;2.45;;
44169;SDS011;29836;52.286;9.576;2023-02-18T16:34:02;4.68;;;2.17;;
44169;SDS011;29836;52.286;9.576;2023-02-18T16:36:27;8.27;;;2.35;;
44169;SDS011;29836;52.286;9.576;2023-02-18T16:38:53;4.13;;;1.63;;
44169;SDS011;29836;52.286;9.576;2023-02-18T16:41:19;6.55;;;1.92;;
44169;SDS011;29836;52.286;9.576;2023-02-18T16:43:45;4.03;;;1.63;;
44169;SDS011;29836;52.286;9.576;2023-02-18T16:46:15;5.07;;;2.13;;
44169;SDS011;29836;52.286;9.576;2023-02-18T16:48:43;6.72;;;2.00;;
44169;SDS011;29836;52.286;9.576;2023-02-18T16:51:14;5.38;;;1.90;;
44169;SDS011;29836;52.286;9.576;2023-02-18T16:53:43;5.30;;;1.92;;
44169;SDS011;29836;52.286;9.576;2023-02-18T16:56:18;7.00;;;2.42;;
44169;SDS011;29836;52.286;9.576;2023-02-18T16:58:46;3.45;;;2.20;;
44169;SDS011;29836;52.286;9.576;2023-02-18T17:01:34;7.07;;;2.30;;
44169;SDS011;29836;52.286;9.576;2023-02-18T17:04:05;9.57;;;2.80;;
44169;SDS011;29836;52.286;9.576;2023-02-18T17:06:31;7.45;;;2.47;;
44169;SDS011;29836;52.286;9.576;2023-02-18T17:08:57;4.22;;;2.40;;
44169;SDS011;29836;52.286;9.576;2023-02-18T17:11:24;6.70;;;2.42;;
44169;SDS011;29836;52.286;9.576;2023-02-18T17:13:56;10.48;;;2.22;;
44169;SDS011;29836;52.286;9.576;2023-02-18T17:16:23;6.05;;;2.67;;
44169;SDS011;29836;52.286;9.576;2023-02-18T17:18:49;8.63;;;2.00;;